GBYDGVSV

Guest
Details From GBYD - Banjul Intl
To GVSV - Sao Pedro
Flight Number -
Tags decoded
Created
Modified
Stats Distance 582 nm / 1,077 km
Max Altitude 0 ft / 0 m
Waypoints 5
Social Downloads 2
Likes 0
Share VATSIM

Download

Looking for another format? Having issues loading an existing format? Contact us
Advertisement - Login to hide

Notes

Requested: GBYD TITOR A602G MOGSA W31 SNT SNT1V GVSV Unmatched points: SNT1V

Route

GBYD TITOR A602G MOGSA SNT GVSV

ID Type Via Altitude Latitude Longitude Leg Dist Tot Dist Heading (true) Name
O GBYD APT - 0 ft / 0 m 13.33796˚ -16.65221˚ - 0 nm - Banjul Intl
TITOR FIX - 0 ft / 0 m 13.00000˚ -18.00000˚ 81 nm 81 nm 256° / 255° -
MOGSA FIX A602G (AWY-LO) 0 ft / 0 m 14.68833˚ -20.21139˚ 164 nm 245 nm 308° / 308° -
SNT VOR - 0 ft / 0 m 14.93909˚ -23.48212˚ 190 nm 435 nm 275° / 274° PRAIA VOR-DME
O GVSV APT - 0 ft / 0 m 16.83370˚ -25.05466˚ 145 nm 581 nm 322° / 321° Sao Pedro

Altitude Profile

Advertisement - Login to hide

Weather


0- 5 10 15 20 25 30 35+ Temperature / ° C

Clouds and Precipitation
Forecast for 2017-12-14 00:00 UTC. Updated an hour ago

Ground ~20,000 ft ~40,000 ft Winds

GBYD

Details ICAO GBYD (BJL)
Name Banjul Intl
Region The Gambia
Timezone Africa/Banjul (UTC+0.0)
Stats Elevation 95 ft / 29 m (AMSL)
Location 13.337960° -16.652206°
Runways 1
Magnetic Variation 7.312° W

METAR

Not found

TAF

TAF TAF GBYD 132330Z 1400/1506 02010KT 8000 NSC

Decode

Departure Runways

ID Width Length Bearing (true) Bearing (mag) Surface Threshold Offset Overrun Length
14 148 ft / 45 m 11,825 ft / 3,604 m 130.82° 138.13° Asphalt 500 ft / 152 m 197 ft / 60 m
32 148 ft / 45 m 11,825 ft / 3,604 m 310.83° 318.14° Asphalt 500 ft / 152 m 393 ft / 120 m

GVSV

Details ICAO GVSV (VXE)
Name Sao Pedro
Region Cape Verde
Timezone Atlantic/Cape_Verde (UTC-1.0)
Stats Elevation 66 ft / 20 m (AMSL)
Location 16.833703° -25.054661°
Runways 1
Magnetic Variation 10.110° W

METAR

GVSV 132300Z 07015G25KT 9999 FEW017 BKN022 23/18 Q1018 NOSIG

Decode

TAF

TAF GVSV 132300Z 1400/1506 08020KT 9999 SCT018 TEMPO 1400/1404 SCT015 BKN020 TEMPO 1411/1421 08020G30KT BECMG 1423/1501 5000 HZ

Decode

Destination Runways

ID Width Length Bearing (true) Bearing (mag) Surface Threshold Offset Overrun Length
07 148 ft / 45 m 6,493 ft / 1,979 m 53.56° 63.67° Asphalt 1,066 ft / 325 m 0 ft / 0 m
25 148 ft / 45 m 6,493 ft / 1,979 m 233.57° 243.68° Asphalt 1,113 ft / 339 m 0 ft / 0 m